Onde está Abrigada en Portugal?

Abrigada está situado na região Lisboa em Portugal!

Buscar o nome de uma cidade:

Abriq, Abrigada, Abritski, Abrigny, Abricot

Aqui você vai encontrar a localização de Abrigada em um mapa.
Para ver como ele atualmente parece, abaixo estão algumas fotos da região, com webcams online.
Você também pode encontrar a distância para as principais cidades da região e de cidades do resto do Portugal.

Todos os lugares do mundo chamado .

new

Onde está Abrigada no mapa?


Webcams perto Abrigada

Benavente > North-East: AIrport, METAR: BENAV 180005Z 36004KT 17/14 Q1015.


Benavente > North-East: AIrport, METAR: BENAV 180005Z 36004KT 17/14 Q1015 - Dia
Actual
Benavente > North-East: AIrport, METAR: BENAV 180005Z 36004KT 17/14 Q1015 - Actual

Caldas da Rainha.


Caldas da Rainha - Dia
Actual
Caldas da Rainha - Actual

Silveira: Santa Cruz (Live HD°).


Silveira: Santa Cruz (Live HD°) - Dia
Actual
Silveira: Santa Cruz (Live HD°) - Actual

Webcams provided by webcams.travel

Distâncias

Onde está Abrigada em relação a outros lugares?

Top 10 cidades em Lisboa e distância de Abrigada.

Cidade#Populaçãokmmilhas
Lisbon15177984830
Amadora21788564729
Queluz31033984830
Loures4662303723
Rio de Mouro5546954830
Odivelas6546234226
São Domingos de Rana7467175635
Cascais8364366138
Alcabideche9333155635
Póvoa de Santa Iria10289003220

Top 10 cidades em Portugal e distância de Abrigada.

Cidade # Populaçãokmmilhas
Lisbon15177984830
Porto2249630225140
Amadora31788564729
Braga4121393272169
Setúbal51171096943
Coimbra610658012980
Queluz71033984830
Funchal8980411014630
Vila Nova de Gaia970810224139
Loures10662303723